Time;durP1;ratioP1;P1;durP2;ratioP2;P2;SDS_P1;SDS_P2;PMS_P1;PMS_P2;Temp;Humidity;BMP_temperature;BMP_pressure;BME280_temperature;BME280_humidity;BME280_pressure;Samples;Min_cycle;Max_cycle;Signal;HPM_P1;HPM_P2
2021/09/12 00:00:10;;;;;;;78.63;37.55;;;;;;;;;;5073361;28;20106;-63
2021/09/12 00:02:58;;;;;;;69.95;35.75;;;;;;;;;;5073219;28;20056;-62
2021/09/12 00:05:43;;;;;;;73.75;35.38;;;;;;;;;;5083560;28;20052;-63
2021/09/12 00:08:29;;;;;;;72.32;34.80;;;;;;;;;;5076984;28;20056;-62
2021/09/12 00:11:14;;;;;;;66.20;33.42;;;;;;;;;;5072949;28;20123;-63
2021/09/12 00:13:59;;;;;;;81.38;35.15;;;;;;;;;;5072809;28;20124;-63
2021/09/12 00:16:45;;;;;;;85.95;38.97;;;;;;;;;;5072976;28;20052;-63
2021/09/12 00:19:30;;;;;;;91.80;38.75;;;;;;;;;;5072955;28;20052;-62
2021/09/12 00:22:15;;;;;;;81.15;35.92;;;;;;;;;;5079102;28;20052;-63
2021/09/12 00:25:01;;;;;;;82.65;37.38;;;;;;;;;;5082384;28;20053;-64
2021/09/12 00:27:46;;;;;;;86.68;36.33;;;;;;;;;;5078628;28;20404;-62
2021/09/12 00:30:32;;;;;;;89.15;38.15;;;;;;;;;;5072851;28;20088;-63
2021/09/12 00:33:17;;;;;;;72.57;36.45;;;;;;;;;;5072597;28;20498;-62
2021/09/12 00:36:02;;;;;;;83.93;40.28;;;;;;;;;;5072432;28;20044;-63
2021/09/12 00:38:48;;;;;;;82.57;39.38;;;;;;;;;;5072719;28;20048;-63
2021/09/12 00:41:39;;;;;;;80.68;36.60;;;;;;;;;;5072575;28;20060;-62
2021/09/12 00:44:24;;;;;;;92.50;36.53;;;;;;;;;;5072133;28;20457;-63
2021/09/12 00:47:11;;;;;;;90.32;36.42;;;;;;;;;;5072558;28;20275;-62
2021/09/12 00:49:56;;;;;;;97.03;37.45;;;;;;;;;;5072431;28;20052;-62
2021/09/12 00:52:41;;;;;;;79.97;36.10;;;;;;;;;;5074163;28;20048;-64
2021/09/12 00:55:26;;;;;;;91.43;37.58;;;;;;;;;;5083280;28;20080;-63
2021/09/12 00:58:12;;;;;;;81.25;36.63;;;;;;;;;;5081174;28;20052;-64
2021/09/12 01:00:58;;;;;;;72.55;35.95;;;;;;;;;;5061360;28;20514;-62
2021/09/12 01:03:43;;;;;;;84.80;36.88;;;;;;;;;;5072145;28;20052;-63
2021/09/12 01:06:28;;;;;;;80.30;36.13;;;;;;;;;;5072340;28;20465;-62
2021/09/12 01:09:13;;;;;;;74.03;33.38;;;;;;;;;;5057048;28;20128;-62
2021/09/12 01:11:58;;;;;;;62.78;31.67;;;;;;;;;;5071981;28;20049;-62
2021/09/12 01:14:43;;;;;;;70.38;33.33;;;;;;;;;;5071845;28;20052;-63
2021/09/12 01:17:29;;;;;;;71.88;34.20;;;;;;;;;;5072046;28;20048;-63
2021/09/12 01:20:14;;;;;;;73.60;33.80;;;;;;;;;;5071934;28;20052;-63
2021/09/12 01:23:00;;;;;;;78.30;34.90;;;;;;;;;;5072072;28;20053;-62
2021/09/12 01:25:45;;;;;;;72.03;33.08;;;;;;;;;;5071976;28;20097;-62
2021/09/12 01:28:30;;;;;;;78.57;33.30;;;;;;;;;;5071810;28;20054;-63
2021/09/12 01:31:22;;;;;;;70.13;33.65;;;;;;;;;;5071998;28;20048;-63
2021/09/12 01:34:07;;;;;;;81.97;34.85;;;;;;;;;;5074681;28;20044;-63
2021/09/12 01:36:52;;;;;;;78.40;37.47;;;;;;;;;;5085403;28;20059;-64
2021/09/12 01:39:38;;;;;;;93.18;38.00;;;;;;;;;;5063166;28;20056;-63
2021/09/12 01:42:23;;;;;;;88.93;37.92;;;;;;;;;;5071912;28;20415;-63
2021/09/12 01:45:08;;;;;;;78.63;36.60;;;;;;;;;;5075800;28;20052;-62
2021/09/12 01:47:59;;;;;;;97.40;39.25;;;;;;;;;;5071911;28;20060;-63
2021/09/12 01:50:45;;;;;;;90.47;38.97;;;;;;;;;;5071694;28;20123;-63
2021/09/12 01:53:30;;;;;;;95.30;39.83;;;;;;;;;;5076639;28;20052;-63
2021/09/12 01:56:15;;;;;;;83.55;37.22;;;;;;;;;;5071768;28;20049;-62
2021/09/12 01:59:01;;;;;;;88.15;38.15;;;;;;;;;;5071700;28;20048;-63
2021/09/12 02:01:46;;;;;;;73.78;36.00;;;;;;;;;;5071500;28;20507;-62
2021/09/12 02:04:31;;;;;;;81.45;35.60;;;;;;;;;;5071481;28;20057;-63
2021/09/12 02:07:17;;;;;;;82.00;35.42;;;;;;;;;;5083658;28;20053;-64
2021/09/12 02:10:02;;;;;;;73.68;33.35;;;;;;;;;;5059065;28;20052;-64
2021/09/12 02:12:47;;;;;;;69.80;31.83;;;;;;;;;;5054680;28;20052;-63
2021/09/12 02:15:33;;;;;;;60.58;30.08;;;;;;;;;;5075024;28;20057;-63
2021/09/12 02:18:18;;;;;;;60.10;29.17;;;;;;;;;;5075193;28;20566;-63
2021/09/12 02:21:03;;;;;;;66.07;29.48;;;;;;;;;;5075189;28;20052;-62
2021/09/12 02:23:48;;;;;;;60.53;28.50;;;;;;;;;;5074858;28;20056;-63
2021/09/12 02:26:34;;;;;;;59.08;28.33;;;;;;;;;;5075081;28;20052;-63
2021/09/12 02:29:19;;;;;;;51.85;25.77;;;;;;;;;;5074992;28;20477;-63
2021/09/12 02:32:05;;;;;;;52.08;25.60;;;;;;;;;;5075042;28;20044;-62
2021/09/12 02:34:50;;;;;;;51.88;26.70;;;;;;;;;;5074804;28;20048;-64
2021/09/12 02:37:35;;;;;;;45.00;24.48;;;;;;;;;;5066526;28;20059;-63
2021/09/12 02:40:20;;;;;;;51.72;24.50;;;;;;;;;;5079314;28;20048;-63
2021/09/12 02:43:06;;;;;;;45.75;23.80;;;;;;;;;;5086010;28;20048;-64
2021/09/12 02:45:52;;;;;;;49.30;23.85;;;;;;;;;;5067891;28;20151;-64
2021/09/12 02:48:37;;;;;;;54.25;25.17;;;;;;;;;;5070324;28;20052;-64
2021/09/12 02:51:22;;;;;;;46.13;24.23;;;;;;;;;;5071136;28;20057;-63
2021/09/12 02:54:08;;;;;;;51.75;24.27;;;;;;;;;;5058970;28;20048;-63
2021/09/12 02:56:53;;;;;;;58.53;25.20;;;;;;;;;;5074452;28;20558;-62
2021/09/12 02:59:38;;;;;;;47.60;25.42;;;;;;;;;;5074439;28;20418;-63
2021/09/12 03:02:24;;;;;;;53.58;24.98;;;;;;;;;;5074831;28;20048;-63
2021/09/12 03:05:09;;;;;;;47.88;27.08;;;;;;;;;;5074191;28;20053;-62
2021/09/12 03:07:54;;;;;;;57.45;27.63;;;;;;;;;;5074346;28;20056;-63
2021/09/12 03:10:39;;;;;;;49.47;26.08;;;;;;;;;;5074111;28;20045;-63
2021/09/12 03:13:24;;;;;;;53.38;26.23;;;;;;;;;;5074323;28;20116;-63
2021/09/12 03:16:10;;;;;;;46.90;25.27;;;;;;;;;;5074284;28;20052;-62
2021/09/12 03:18:55;;;;;;;48.33;25.52;;;;;;;;;;5072907;28;20053;-63
2021/09/12 03:21:40;;;;;;;45.45;24.10;;;;;;;;;;5074208;28;20052;-63
2021/09/12 03:24:26;;;;;;;47.13;24.45;;;;;;;;;;5076469;28;20057;-63
2021/09/12 03:27:11;;;;;;;46.75;23.20;;;;;;;;;;5077374;28;20057;-64
2021/09/12 03:29:56;;;;;;;43.65;22.85;;;;;;;;;;5073861;28;20052;-62
2021/09/12 03:32:42;;;;;;;44.55;22.27;;;;;;;;;;5073978;28;20530;-62
2021/09/12 03:35:27;;;;;;;40.90;21.73;;;;;;;;;;5108695;22;20051;-64
2021/09/12 03:38:13;;;;;;;39.63;22.30;;;;;;;;;;5114375;28;20048;-64
2021/09/12 03:40:58;;;;;;;39.88;22.23;;;;;;;;;;5114467;28;20068;-64
2021/09/12 03:43:43;;;;;;;41.83;20.77;;;;;;;;;;5113993;28;20118;-64
2021/09/12 03:46:28;;;;;;;37.88;19.90;;;;;;;;;;5114304;28;20048;-64
2021/09/12 03:49:14;;;;;;;38.95;20.10;;;;;;;;;;5114259;28;20051;-64
2021/09/12 03:51:59;;;;;;;37.10;20.35;;;;;;;;;;5114019;28;20043;-64
2021/09/12 03:54:44;;;;;;;38.80;20.25;;;;;;;;;;5113934;28;20048;-64
2021/09/12 03:57:30;;;;;;;34.75;18.15;;;;;;;;;;5114104;28;20444;-64
2021/09/12 04:00:15;;;;;;;35.17;18.85;;;;;;;;;;5113976;28;20048;-64
2021/09/12 04:03:00;;;;;;;34.13;19.25;;;;;;;;;;5114100;28;20459;-64
2021/09/12 04:05:46;;;;;;;39.65;18.02;;;;;;;;;;5113617;28;20055;-64
2021/09/12 04:08:31;;;;;;;41.22;19.65;;;;;;;;;;5113804;28;20059;-64
2021/09/12 04:11:16;;;;;;;38.85;19.67;;;;;;;;;;5113596;28;20047;-64
2021/09/12 04:14:02;;;;;;;34.15;18.50;;;;;;;;;;5113551;28;20122;-64
2021/09/12 04:16:47;;;;;;;39.38;18.58;;;;;;;;;;5113663;28;20047;-64
2021/09/12 04:19:32;;;;;;;38.78;18.50;;;;;;;;;;5113766;28;20122;-64
2021/09/12 04:22:17;;;;;;;36.08;18.77;;;;;;;;;;5113415;28;20134;-64
2021/09/12 04:25:03;;;;;;;35.22;19.27;;;;;;;;;;5113190;28;20480;-64
2021/09/12 04:27:48;;;;;;;40.88;19.20;;;;;;;;;;5113299;28;20062;-64
2021/09/12 04:30:33;;;;;;;36.08;19.00;;;;;;;;;;5113136;28;20043;-64
2021/09/12 04:33:18;;;;;;;35.22;18.65;;;;;;;;;;5113228;28;20592;-64
2021/09/12 04:36:04;;;;;;;40.28;18.55;;;;;;;;;;5112761;28;20044;-64
2021/09/12 04:38:49;;;;;;;34.42;17.88;;;;;;;;;;5113228;28;20044;-64
2021/09/12 04:41:34;;;;;;;36.30;17.30;;;;;;;;;;5113197;28;20055;-64
2021/09/12 04:44:20;;;;;;;37.47;18.98;;;;;;;;;;5112646;28;20055;-64
2021/09/12 04:47:05;;;;;;;30.20;17.02;;;;;;;;;;5113303;28;20055;-64
2021/09/12 04:49:50;;;;;;;36.55;17.70;;;;;;;;;;5113009;28;20078;-64
2021/09/12 04:52:35;;;;;;;35.70;18.00;;;;;;;;;;5112894;28;20136;-64
2021/09/12 04:55:21;;;;;;;36.03;18.00;;;;;;;;;;5112806;28;20437;-64
2021/09/12 04:58:06;;;;;;;37.15;18.77;;;;;;;;;;5112976;28;20508;-64
2021/09/12 05:00:51;;;;;;;35.60;19.05;;;;;;;;;;5112841;28;20063;-64
2021/09/12 05:03:37;;;;;;;37.75;18.63;;;;;;;;;;5112828;28;20051;-64
2021/09/12 05:06:22;;;;;;;39.00;18.60;;;;;;;;;;5112867;28;20459;-64
2021/09/12 05:09:08;;;;;;;34.88;18.33;;;;;;;;;;5112756;28;20053;-64
2021/09/12 05:11:54;;;;;;;32.13;18.05;;;;;;;;;;5112763;28;20047;-64
2021/09/12 05:14:39;;;;;;;33.05;19.48;;;;;;;;;;5112413;28;20052;-64
2021/09/12 05:17:24;;;;;;;33.97;18.25;;;;;;;;;;5112546;28;20051;-64
2021/09/12 05:20:10;;;;;;;33.60;18.15;;;;;;;;;;5112735;28;20048;-64
2021/09/12 05:22:55;;;;;;;30.52;18.25;;;;;;;;;;5112666;28;20118;-64
2021/09/12 05:25:40;;;;;;;29.83;17.90;;;;;;;;;;5112210;28;20093;-64
2021/09/12 05:28:25;;;;;;;34.72;18.23;;;;;;;;;;5112280;28;20091;-64
2021/09/12 05:31:11;;;;;;;29.25;17.38;;;;;;;;;;5107540;28;20047;-64
2021/09/12 05:33:56;;;;;;;32.30;17.65;;;;;;;;;;5091863;28;20060;-64
2021/09/12 05:36:41;;;;;;;28.20;17.02;;;;;;;;;;5092382;28;20052;-64
2021/09/12 05:39:27;;;;;;;30.98;16.92;;;;;;;;;;5092199;28;20051;-64
2021/09/12 05:42:12;;;;;;;30.27;15.85;;;;;;;;;;5094666;28;20667;-64
2021/09/12 05:44:57;;;;;;;32.47;15.68;;;;;;;;;;5095977;28;20127;-64
2021/09/12 05:47:42;;;;;;;31.05;16.10;;;;;;;;;;5096510;28;20052;-64
2021/09/12 05:50:28;;;;;;;28.92;15.98;;;;;;;;;;5096118;28;20081;-64
2021/09/12 05:53:14;;;;;;;28.85;15.10;;;;;;;;;;5096027;28;20559;-64
2021/09/12 05:55:59;;;;;;;31.92;16.17;;;;;;;;;;5096066;28;20044;-64
2021/09/12 05:58:44;;;;;;;31.35;16.55;;;;;;;;;;5096057;28;20115;-64
2021/09/12 06:01:30;;;;;;;27.17;15.00;;;;;;;;;;5095871;28;20493;-64
2021/09/12 06:04:15;;;;;;;32.53;16.95;;;;;;;;;;5095659;28;20413;-64
2021/09/12 06:07:00;;;;;;;29.15;15.38;;;;;;;;;;5095911;28;20048;-64
2021/09/12 06:09:46;;;;;;;29.55;15.45;;;;;;;;;;5095716;28;20048;-64
2021/09/12 06:12:31;;;;;;;27.20;14.73;;;;;;;;;;5095888;28;20052;-64
2021/09/12 06:15:16;;;;;;;31.23;15.65;;;;;;;;;;5095461;28;20048;-64
2021/09/12 06:18:02;;;;;;;32.25;16.02;;;;;;;;;;5095508;28;20123;-64
2021/09/12 06:20:47;;;;;;;23.58;15.32;;;;;;;;;;5095761;28;20051;-64
2021/09/12 06:23:32;;;;;;;30.50;15.13;;;;;;;;;;5095278;28;20564;-64
2021/09/12 06:26:18;;;;;;;29.65;16.80;;;;;;;;;;5095341;28;20052;-64
2021/09/12 06:29:03;;;;;;;33.17;15.88;;;;;;;;;;5095404;28;20726;-64
2021/09/12 06:31:49;;;;;;;32.65;14.95;;;;;;;;;;5095377;28;20452;-64
2021/09/12 06:34:35;;;;;;;31.45;15.48;;;;;;;;;;5095155;28;20048;-64
2021/09/12 06:37:20;;;;;;;30.73;14.73;;;;;;;;;;5095360;28;20044;-64
2021/09/12 06:40:06;;;;;;;29.05;16.23;;;;;;;;;;5079975;28;20056;-64
2021/09/12 06:42:52;;;;;;;28.35;15.38;;;;;;;;;;5095137;28;20052;-64
2021/09/12 06:45:38;;;;;;;25.95;15.35;;;;;;;;;;5094951;28;20056;-64
2021/09/12 06:48:23;;;;;;;29.17;16.00;;;;;;;;;;5062812;28;20056;-64
2021/09/12 06:51:09;;;;;;;28.67;15.60;;;;;;;;;;5095271;28;20512;-64
2021/09/12 06:53:54;;;;;;;27.55;15.05;;;;;;;;;;5094779;28;20421;-64
2021/09/12 06:56:39;;;;;;;26.10;15.55;;;;;;;;;;5094955;28;20048;-64
2021/09/12 06:59:24;;;;;;;24.25;14.40;;;;;;;;;;5094831;28;20044;-64
2021/09/12 07:02:12;;;;;;;24.85;15.27;;;;;;;;;;5094955;28;20052;-65
2021/09/12 07:04:57;;;;;;;21.77;14.68;;;;;;;;;;5094505;28;20056;-64
2021/09/12 07:07:42;;;;;;;31.05;14.77;;;;;;;;;;5094711;28;20052;-65
2021/09/12 07:10:27;;;;;;;27.75;14.50;;;;;;;;;;5094564;28;20502;-64
2021/09/12 07:13:13;;;;;;;27.77;14.35;;;;;;;;;;5094665;28;20060;-64
2021/09/12 07:15:58;;;;;;;28.95;15.45;;;;;;;;;;5094441;28;20087;-65
2021/09/12 07:18:44;;;;;;;30.98;16.50;;;;;;;;;;5094668;28;20131;-64
2021/09/12 07:21:29;;;;;;;25.75;16.58;;;;;;;;;;5094538;28;20089;-64
2021/09/12 07:24:14;;;;;;;36.30;16.73;;;;;;;;;;5094097;28;20051;-64
2021/09/12 07:27:00;;;;;;;36.70;18.35;;;;;;;;;;5094232;28;20497;-64
2021/09/12 07:29:45;;;;;;;30.35;19.15;;;;;;;;;;5094395;28;20048;-63
2021/09/12 07:32:30;;;;;;;36.35;19.05;;;;;;;;;;5094101;28;20194;-64
2021/09/12 07:35:16;;;;;;;31.23;18.02;;;;;;;;;;5093612;28;20052;-64
2021/09/12 07:38:01;;;;;;;31.80;18.83;;;;;;;;;;5094228;28;20051;-64
2021/09/12 07:40:47;;;;;;;28.00;19.02;;;;;;;;;;5094110;28;20048;-65
2021/09/12 07:43:32;;;;;;;37.50;20.77;;;;;;;;;;5093754;28;20468;-65
2021/09/12 07:46:17;;;;;;;33.35;20.23;;;;;;;;;;5102832;28;20051;-64
2021/09/12 07:49:02;;;;;;;35.70;21.38;;;;;;;;;;5114358;28;20055;-64
2021/09/12 07:51:48;;;;;;;33.25;20.05;;;;;;;;;;5113979;28;20051;-64
2021/09/12 07:54:33;;;;;;;31.27;19.27;;;;;;;;;;5114109;28;20051;-64
2021/09/12 07:57:18;;;;;;;28.50;18.27;;;;;;;;;;5114064;28;20493;-64
2021/09/12 08:00:07;;;;;;;26.83;18.92;;;;;;;;;;5113895;28;20122;-64
2021/09/12 08:02:57;;;;;;;35.85;22.50;;;;;;;;;;5114105;28;20052;-64
2021/09/12 08:05:43;;;;;;;39.88;24.02;;;;;;;;;;5113305;28;20051;-64
2021/09/12 08:08:29;;;;;;;34.13;23.05;;;;;;;;;;5113802;28;20063;-64
2021/09/12 08:11:14;;;;;;;35.15;24.05;;;;;;;;;;5113662;28;20501;-64
2021/09/12 08:13:59;;;;;;;34.25;23.60;;;;;;;;;;5113606;28;20051;-65
2021/09/12 08:16:45;;;;;;;34.80;24.85;;;;;;;;;;5113600;28;20048;-63
2021/09/12 08:19:30;;;;;;;35.03;24.10;;;;;;;;;;5113813;28;20051;-64
2021/09/12 08:22:15;;;;;;;32.63;23.85;;;;;;;;;;5113678;28;20051;-64
2021/09/12 08:25:01;;;;;;;34.58;24.48;;;;;;;;;;5113198;28;20122;-64
2021/09/12 08:27:46;;;;;;;37.05;26.52;;;;;;;;;;5113721;28;20052;-64
2021/09/12 08:30:31;;;;;;;32.70;23.58;;;;;;;;;;5113459;28;20055;-64
2021/09/12 08:33:17;;;;;;;34.03;23.85;;;;;;;;;;5113464;28;20047;-64
2021/09/12 08:36:02;;;;;;;38.47;25.27;;;;;;;;;;5113219;28;20116;-64
2021/09/12 08:38:47;;;;;;;33.33;22.20;;;;;;;;;;5113195;28;20048;-64
2021/09/12 08:41:33;;;;;;;32.10;22.95;;;;;;;;;;5113254;28;20409;-64
2021/09/12 08:44:18;;;;;;;40.10;23.52;;;;;;;;;;5113015;28;20047;-64
2021/09/12 08:47:03;;;;;;;34.13;24.83;;;;;;;;;;5113269;28;20052;-64
2021/09/12 08:49:48;;;;;;;38.70;24.40;;;;;;;;;;5097841;28;20052;-64
2021/09/12 08:52:33;;;;;;;40.20;24.48;;;;;;;;;;5113198;28;20056;-64
2021/09/12 08:55:19;;;;;;;38.17;24.80;;;;;;;;;;5112849;28;20055;-64
2021/09/12 08:58:04;;;;;;;40.08;24.65;;;;;;;;;;5113047;28;20047;-63
2021/09/12 09:00:50;;;;;;;40.83;26.15;;;;;;;;;;5113108;28;20043;-64
2021/09/12 09:03:36;;;;;;;44.15;25.95;;;;;;;;;;5091508;28;20044;-64
2021/09/12 09:06:21;;;;;;;43.88;26.50;;;;;;;;;;5095513;28;20051;-64
2021/09/12 09:09:07;;;;;;;43.65;28.08;;;;;;;;;;5110090;28;20300;-64
2021/09/12 09:11:52;;;;;;;46.92;27.70;;;;;;;;;;5110467;28;20509;-64
2021/09/12 09:14:37;;;;;;;43.00;27.00;;;;;;;;;;5084116;28;20043;-64
2021/09/12 09:17:22;;;;;;;51.00;28.73;;;;;;;;;;5109823;28;20047;-64
2021/09/12 09:20:08;;;;;;;51.38;30.15;;;;;;;;;;5110117;28;20113;-64
2021/09/12 09:22:57;;;;;;;52.47;29.58;;;;;;;;;;5110632;28;20048;-63
2021/09/12 09:25:42;;;;;;;47.13;28.25;;;;;;;;;;5110986;28;20051;-65
2021/09/12 09:28:28;;;;;;;48.22;30.77;;;;;;;;;;5111282;28;20059;-65
2021/09/12 09:31:13;;;;;;;47.97;28.60;;;;;;;;;;5095956;28;20513;-65
2021/09/12 09:34:12;;;;;;;44.10;27.63;;;;;;;;;;5109359;28;20044;-64
2021/09/12 09:37:07;;;;;;;53.22;30.27;;;;;;;;;;5110832;28;20075;-65
2021/09/12 09:39:53;;;;;;;52.42;28.70;;;;;;;;;;5110731;28;20047;-64
2021/09/12 09:42:39;;;;;;;42.33;27.95;;;;;;;;;;5111300;28;20052;-65
2021/09/12 09:45:25;;;;;;;47.92;28.73;;;;;;;;;;5113057;22;20040;-61
2021/09/12 09:48:14;;;;;;;45.33;28.42;;;;;;;;;;5089918;28;20052;-62
2021/09/12 09:50:59;;;;;;;46.17;29.27;;;;;;;;;;5089662;28;20534;-62
2021/09/12 09:53:44;;;;;;;46.00;28.20;;;;;;;;;;5088597;28;20130;-61
2021/09/12 09:56:29;;;;;;;46.55;27.08;;;;;;;;;;5090160;28;20056;-62
2021/09/12 09:59:15;;;;;;;46.83;27.48;;;;;;;;;;5074253;28;20501;-62
2021/09/12 10:02:01;;;;;;;43.17;27.70;;;;;;;;;;5090475;28;20048;-62
2021/09/12 10:04:46;;;;;;;50.30;29.65;;;;;;;;;;5088666;28;20052;-62
2021/09/12 10:07:32;;;;;;;43.53;26.80;;;;;;;;;;5090226;28;20055;-60
2021/09/12 10:10:19;;;;;;;42.10;27.73;;;;;;;;;;5054662;28;20044;-60
2021/09/12 10:13:06;;;;;;;38.42;24.42;;;;;;;;;;5069613;28;20503;-61
2021/09/12 10:15:53;;;;;;;43.90;25.25;;;;;;;;;;5068807;28;20414;-60
2021/09/12 10:18:38;;;;;;;39.38;24.85;;;;;;;;;;5054656;28;20048;-61
2021/09/12 10:21:27;;;;;;;33.33;23.33;;;;;;;;;;5055261;28;20053;-62
2021/09/12 10:24:12;;;;;;;34.60;23.63;;;;;;;;;;5068898;28;20048;-61
2021/09/12 10:26:57;;;;;;;31.75;22.90;;;;;;;;;;5069114;28;20045;-60
2021/09/12 10:29:50;;;;;;;32.47;23.58;;;;;;;;;;5072093;28;20048;-61
2021/09/12 10:32:35;;;;;;;35.10;22.90;;;;;;;;;;5072773;28;20102;-60
2021/09/12 10:35:24;;;;;;;34.70;23.02;;;;;;;;;;5072618;28;20437;-62
2021/09/12 10:38:12;;;;;;;33.55;23.95;;;;;;;;;;5055287;28;20100;-61
2021/09/12 10:40:58;;;;;;;32.40;24.75;;;;;;;;;;5072357;28;20052;-61
2021/09/12 10:43:46;;;;;;;37.83;24.80;;;;;;;;;;5066717;28;20052;-61
2021/09/12 10:46:31;;;;;;;41.35;26.65;;;;;;;;;;5072354;28;20060;-61
2021/09/12 10:49:17;;;;;;;37.13;24.42;;;;;;;;;;5072891;28;20052;-61
2021/09/12 10:52:02;;;;;;;35.00;25.67;;;;;;;;;;5072745;28;20079;-62
2021/09/12 10:55:06;;;;;;;38.05;24.80;;;;;;;;;;5070707;28;20546;-61
2021/09/12 10:57:51;;;;;;;31.65;23.17;;;;;;;;;;5072309;28;20056;-61
2021/09/12 11:00:36;;;;;;;38.10;24.13;;;;;;;;;;5071726;28;20053;-61
2021/09/12 11:03:21;;;;;;;37.90;24.23;;;;;;;;;;5072457;28;20090;-59
2021/09/12 11:06:08;;;;;;;30.60;23.40;;;;;;;;;;5072261;28;20060;-60
2021/09/12 11:08:53;;;;;;;39.03;23.50;;;;;;;;;;5056740;28;20048;-60
2021/09/12 11:11:38;;;;;;;34.50;22.88;;;;;;;;;;5071635;28;20075;-61
2021/09/12 11:14:24;;;;;;;30.42;22.83;;;;;;;;;;5071933;28;20469;-60
2021/09/12 11:17:09;;;;;;;32.58;23.55;;;;;;;;;;5072520;28;20048;-60
2021/09/12 11:19:55;;;;;;;30.27;22.83;;;;;;;;;;5072447;28;20052;-61
2021/09/12 11:22:52;;;;;;;33.47;23.52;;;;;;;;;;5074254;28;20079;-61
2021/09/12 11:25:37;;;;;;;29.20;22.85;;;;;;;;;;5073837;28;20052;-61
2021/09/12 11:28:23;;;;;;;34.03;23.00;;;;;;;;;;5060746;28;20052;-61
2021/09/12 11:31:08;;;;;;;33.25;23.77;;;;;;;;;;5059115;28;20088;-60
2021/09/12 11:33:53;;;;;;;33.30;22.02;;;;;;;;;;5073708;28;20123;-61
2021/09/12 11:36:42;;;;;;;30.30;21.92;;;;;;;;;;5073816;28;20048;-61
2021/09/12 11:39:28;;;;;;;33.95;23.25;;;;;;;;;;5073165;28;20053;-60
2021/09/12 11:42:14;;;;;;;32.92;24.00;;;;;;;;;;5074202;28;20049;-61
2021/09/12 11:44:59;;;;;;;34.10;25.52;;;;;;;;;;5073458;28;20048;-61
2021/09/12 11:47:45;;;;;;;28.17;21.98;;;;;;;;;;5074151;28;20052;-61
2021/09/12 11:50:30;;;;;;;31.80;22.45;;;;;;;;;;5058703;28;20247;-61
2021/09/12 11:53:15;;;;;;;30.23;21.98;;;;;;;;;;5073435;28;20056;-61
2021/09/12 11:56:09;;;;;;;21.33;14.77;;;;;;;;;;5073442;28;20558;-60
2021/09/12 11:58:55;;;;;;;14.45;9.73;;;;;;;;;;5076517;28;20052;-62
2021/09/12 12:01:40;;;;;;;7.70;4.65;;;;;;;;;;5060605;28;20045;-61
2021/09/12 12:04:26;;;;;;;7.60;5.55;;;;;;;;;;5057985;28;20565;-61
2021/09/12 12:07:11;;;;;;;7.22;4.28;;;;;;;;;;5058426;28;20119;-61
2021/09/12 12:09:56;;;;;;;5.95;3.13;;;;;;;;;;5073161;28;20052;-61
2021/09/12 12:12:41;;;;;;;4.88;2.65;;;;;;;;;;5073247;28;20391;-61
2021/09/12 12:15:39;;;;;;;5.43;2.50;;;;;;;;;;5072758;28;20057;-61
2021/09/12 12:18:25;;;;;;;3.63;2.33;;;;;;;;;;5072962;28;20227;-62
2021/09/12 12:21:13;;;;;;;5.25;2.70;;;;;;;;;;5061737;28;20123;-62
2021/09/12 12:23:58;;;;;;;4.88;2.53;;;;;;;;;;5076974;28;20149;-63
2021/09/12 12:26:44;;;;;;;3.67;2.40;;;;;;;;;;5076754;28;20130;-62
2021/09/12 12:29:31;;;;;;;3.35;2.22;;;;;;;;;;5073485;28;20080;-61
2021/09/12 12:32:16;;;;;;;3.05;2.10;;;;;;;;;;5072625;28;20410;-61
2021/09/12 12:35:02;;;;;;;5.10;2.55;;;;;;;;;;5057370;28;20052;-60
2021/09/12 12:37:47;;;;;;;5.38;1.70;;;;;;;;;;5057876;28;20080;-61
2021/09/12 12:40:32;;;;;;;2.33;1.38;;;;;;;;;;5072675;28;20048;-61
2021/09/12 12:43:23;;;;;;;4.10;1.50;;;;;;;;;;5072510;28;20057;-61
2021/09/12 12:46:08;;;;;;;2.38;0.90;;;;;;;;;;5057771;28;20502;-61
2021/09/12 12:49:04;;;;;;;3.45;1.25;;;;;;;;;;5057473;28;20563;-61
2021/09/12 12:52:21;;;;;;;2.17;0.80;;;;;;;;;;5072076;28;20048;-61
2021/09/12 12:55:07;;;;;;;1.85;0.70;;;;;;;;;;5054421;28;20052;-61
2021/09/12 12:57:52;;;;;;;1.92;0.57;;;;;;;;;;5072471;28;20048;-61
2021/09/12 13:00:37;;;;;;;2.10;0.63;;;;;;;;;;5072432;28;20052;-61
2021/09/12 13:03:22;;;;;;;1.60;0.90;;;;;;;;;;5072277;28;20127;-61
2021/09/12 13:06:10;;;;;;;4.05;0.75;;;;;;;;;;5072195;28;20053;-61
2021/09/12 13:08:55;;;;;;;3.13;0.50;;;;;;;;;;5072338;28;20052;-61
2021/09/12 13:11:44;;;;;;;2.22;0.40;;;;;;;;;;5072264;28;20052;-61
2021/09/12 13:14:29;;;;;;;1.40;0.40;;;;;;;;;;5057357;28;20052;-61
2021/09/12 13:17:14;;;;;;;1.40;0.75;;;;;;;;;;5072275;28;20088;-61
2021/09/12 13:19:59;;;;;;;3.10;0.88;;;;;;;;;;5072178;28;20128;-62
2021/09/12 13:22:45;;;;;;;1.90;0.60;;;;;;;;;;5072125;28;20056;-62
2021/09/12 13:25:30;;;;;;;0.98;0.40;;;;;;;;;;5071816;28;20048;-61
2021/09/12 13:28:15;;;;;;;0.90;0.40;;;;;;;;;;5072118;28;20087;-61
2021/09/12 13:31:01;;;;;;;1.10;0.57;;;;;;;;;;5071985;28;20048;-61
2021/09/12 13:33:50;;;;;;;0.55;0.40;;;;;;;;;;5071757;28;20044;-61
2021/09/12 13:36:35;;;;;;;1.42;0.32;;;;;;;;;;5073787;28;20115;-62
2021/09/12 13:39:21;;;;;;;1.05;0.40;;;;;;;;;;5074206;28;20127;-63
2021/09/12 13:42:06;;;;;;;0.95;0.40;;;;;;;;;;5077881;28;20391;-62
2021/09/12 13:44:51;;;;;;;2.13;0.40;;;;;;;;;;5073727;28;20049;-62
2021/09/12 13:47:37;;;;;;;1.90;0.50;;;;;;;;;;5071794;28;20053;-62
2021/09/12 13:50:22;;;;;;;1.70;0.73;;;;;;;;;;5071644;28;20049;-62
2021/09/12 13:53:07;;;;;;;2.90;0.85;;;;;;;;;;5071561;28;20441;-62
2021/09/12 13:55:53;;;;;;;3.53;0.50;;;;;;;;;;5071704;28;20053;-61
2021/09/12 13:58:38;;;;;;;1.15;0.63;;;;;;;;;;5071597;28;20489;-62
2021/09/12 14:01:23;;;;;;;1.52;0.50;;;;;;;;;;5071787;28;20124;-62
2021/09/12 14:04:09;;;;;;;3.58;0.75;;;;;;;;;;5075630;28;20410;-62
2021/09/12 14:06:54;;;;;;;2.13;0.30;;;;;;;;;;5075458;28;20060;-62
2021/09/12 14:09:40;;;;;;;0.90;0.30;;;;;;;;;;5075585;28;20056;-62
2021/09/12 14:12:25;;;;;;;1.98;0.55;;;;;;;;;;5075439;28;20052;-63
2021/09/12 14:15:10;;;;;;;1.33;0.50;;;;;;;;;;5075181;28;20502;-62
2021/09/12 14:17:55;;;;;;;1.25;0.70;;;;;;;;;;5075616;28;20056;-63
2021/09/12 14:20:41;;;;;;;2.75;0.70;;;;;;;;;;5075514;28;20052;-63
2021/09/12 14:23:26;;;;;;;0.90;0.70;;;;;;;;;;5076147;28;20052;-63
2021/09/12 14:26:12;;;;;;;1.75;0.70;;;;;;;;;;5077341;28;20056;-62
2021/09/12 14:28:57;;;;;;;2.50;0.85;;;;;;;;;;5075586;28;20391;-62
2021/09/12 14:31:42;;;;;;;2.90;0.77;;;;;;;;;;5074960;28;20056;-62
2021/09/12 14:34:28;;;;;;;2.55;0.73;;;;;;;;;;5074765;28;20044;-61
2021/09/12 14:37:13;;;;;;;4.72;1.00;;;;;;;;;;5075076;28;20418;-63
2021/09/12 14:39:58;;;;;;;2.55;0.80;;;;;;;;;;5074979;28;20120;-62
2021/09/12 14:42:44;;;;;;;2.88;0.60;;;;;;;;;;5075915;28;20049;-62
2021/09/12 14:45:29;;;;;;;2.22;0.60;;;;;;;;;;5074469;28;20052;-62
2021/09/12 14:48:15;;;;;;;2.95;0.63;;;;;;;;;;5074820;28;20056;-63
2021/09/12 14:51:00;;;;;;;2.40;0.70;;;;;;;;;;5075466;28;20068;-62
2021/09/12 14:53:46;;;;;;;3.35;0.85;;;;;;;;;;5077459;28;20048;-63
2021/09/12 14:56:31;;;;;;;2.83;0.70;;;;;;;;;;5077978;28;20048;-63
2021/09/12 14:59:22;;;;;;;2.65;0.82;;;;;;;;;;5077587;28;20049;-63
2021/09/12 15:02:09;;;;;;;3.42;0.80;;;;;;;;;;5077045;28;20506;-63
2021/09/12 15:04:54;;;;;;;3.78;0.70;;;;;;;;;;5075802;28;20052;-63
2021/09/12 15:07:39;;;;;;;2.97;1.15;;;;;;;;;;5076401;28;20044;-63
2021/09/12 15:10:27;;;;;;;2.13;0.70;;;;;;;;;;5075629;28;20053;-62
2021/09/12 15:13:13;;;;;;;2.42;1.15;;;;;;;;;;5073477;28;20414;-61
2021/09/12 15:16:00;;;;;;;1.92;0.85;;;;;;;;;;5074308;28;20053;-62
2021/09/12 15:18:45;;;;;;;1.52;0.77;;;;;;;;;;5074340;28;20067;-62
2021/09/12 15:21:31;;;;;;;2.25;0.60;;;;;;;;;;5074565;28;20048;-62
2021/09/12 15:24:16;;;;;;;2.50;0.55;;;;;;;;;;5073788;28;20453;-61
2021/09/12 15:27:01;;;;;;;2.38;0.40;;;;;;;;;;5074191;28;20056;-62
2021/09/12 15:29:47;;;;;;;2.63;0.70;;;;;;;;;;5074105;28;20052;-62
2021/09/12 15:32:33;;;;;;;1.42;0.65;;;;;;;;;;5075141;28;20060;-63
2021/09/12 15:35:19;;;;;;;2.30;0.40;;;;;;;;;;5074099;28;20060;-62
2021/09/12 15:38:04;;;;;;;3.53;1.15;;;;;;;;;;5073942;28;20045;-62
2021/09/12 15:40:49;;;;;;;0.90;0.52;;;;;;;;;;5075083;28;20056;-63
2021/09/12 15:43:34;;;;;;;4.22;0.60;;;;;;;;;;5073424;28;20052;-62
2021/09/12 15:46:20;;;;;;;1.52;0.63;;;;;;;;;;5123317;22;20443;-63
2021/09/12 15:49:05;;;;;;;2.05;0.60;;;;;;;;;;5114200;28;20509;-64
2021/09/12 15:51:50;;;;;;;1.65;0.50;;;;;;;;;;5114343;28;20122;-63
2021/09/12 15:54:35;;;;;;;2.40;0.80;;;;;;;;;;5098586;28;20394;-63
2021/09/12 15:57:20;;;;;;;2.35;0.47;;;;;;;;;;5114029;28;20051;-62
2021/09/12 16:00:06;;;;;;;1.38;0.68;;;;;;;;;;5114223;28;20118;-63
2021/09/12 16:02:57;;;;;;;2.97;1.05;;;;;;;;;;5114136;28;20052;-63
2021/09/12 16:05:42;;;;;;;2.72;0.70;;;;;;;;;;5113468;28;20051;-62
2021/09/12 16:08:27;;;;;;;1.92;0.60;;;;;;;;;;5114044;28;20055;-63
2021/09/12 16:11:13;;;;;;;2.03;0.73;;;;;;;;;;5113944;28;20421;-63